EW9371 Weather Reports


Display with metric or nautical units.
time (UTC)temp
F
wind
direction
speed
MPH
gust
MPH
rain 1hr
in
rain 24hr
in
rain mn
in
humidity
%
barometer
mb
20190916171524 72 0.0 0.0 0.00 0.00 0.00 64 1019.8
20190916170525 72 0.0 0.0 0.00 0.00 0.00 63 1019.6
20190916165515 73 0.0 0.0 0.00 0.00 0.00 62 1019.6
20190916164516 73 0.0 0.0 0.00 0.00 0.00 58 1019.5
20190916163517 74 0.0 0.0 0.00 0.00 0.00 57 1019.5
20190916092518 67 0.0 0.0 0.00 0.00 0.00 75 1023.1
20190916091520 67 0.0 0.0 0.00 0.00 0.00 76 1023.1
20190916090523 65 0.0 0.0 0.00 0.00 0.00 78 1023.4
20190916085524 64 0.0 0.0 0.00 0.00 0.00 81 1023.4
20190916084516 63 0.0 0.0 0.00 0.00 0.00 83 1023.5
20190916083517 62 0.0 0.0 0.00 0.00 0.00 85 1023.4
20190916082519 61 0.0 0.0 0.00 0.00 0.00 85 1023.2
20190916081521 60 0.0 0.0 0.00 0.00 0.00 86 1023.2
20190916080524 59 0.0 0.0 0.00 0.00 0.00 87 1023.3
20190916075516 59 0.0 0.0 0.00 0.00 0.00 87 1023.3
20190916074519 58 0.0 0.0 0.00 0.00 0.00 87 1023.3
20190916073522 58 0.0 0.0 0.00 0.00 0.00 87 1023.3
20190916072524 58 0.0 0.0 0.00 0.00 0.00 87 1023.1
20190916071516 58 0.0 0.0 0.00 0.00 0.00 87 1023.2
20190916070517 57 0.0 0.0 0.00 0.00 0.00 86 1022.8
20190916065521 56 0.0 0.0 0.00 0.00 0.00 85 1022.8
20190916064522 56 0.0 0.0 0.00 0.00 0.00 85 1022.7
20190916063524 55 0.0 0.0 0.00 0.00 0.00 86 1022.7
20190916062516 55 0.0 0.0 0.00 0.00 0.00 86 1022.9
20190916061518 54 0.0 0.0 0.00 0.00 0.00 86 1022.8
20190916060520 54 0.0 0.0 0.00 0.00 0.00 86 1022.8
20190916055523 53 0.0 0.0 0.00 0.00 0.00 86 1022.9
20190916054525 53 0.0 0.0 0.00 0.00 0.00 86 1023.1
20190916053517 53 0.0 0.0 0.00 0.00 0.00 86 1023.1
20190916052518 53 0.0 0.0 0.00 0.00 0.00 86 1022.9
20190916051521 53 0.0 0.0 0.00 0.00 0.00 86 1022.9
20190916050523 53 0.0 0.0 0.00 0.00 0.00 86 1023.0
20190916045525 53 0.0 0.0 0.00 0.00 0.00 86 1023.1
20190916044517 53 0.0 0.0 0.00 0.00 0.00 86 1023.3
20190916043519 53 0.0 0.0 0.00 0.00 0.00 85 1023.3
20190916042521 53 0.0 0.0 0.00 0.00 0.00 85 1023.3
20190916041524 54 0.0 0.0 0.00 0.00 0.00 85 1023.3
20190916040516 54 0.0 0.0 0.00 0.00 0.00 84 1023.7
20190916035518 54 0.0 0.0 0.00 0.00 0.00 85 1023.7
20190916034521 54 0.0 0.0 0.00 0.00 0.00 85 1023.7
20190916033522 54 0.0 0.0 0.00 0.00 0.00 85 1023.7
20190916032525 55 0.0 0.0 0.00 0.00 0.00 85 1023.7
20190916031517 55 0.0 0.0 0.00 0.00 0.00 85 1023.7
20190916030519 55 0.0 0.0 0.00 0.00 0.00 85 1023.7
20190916025522 55 0.0 0.0 0.00 0.00 0.00 85 1023.7
20190916024524 55 0.0 0.0 0.00 0.00 0.00 84 1023.8
20190916023516 55 0.0 0.0 0.00 0.00 0.00 85 1023.8
20190916022518 55 0.0 0.0 0.00 0.00 0.00 85 1023.9
20190916021520 55 0.0 0.0 0.00 0.00 0.00 85 1023.9
20190916020523 56 0.0 0.0 0.00 0.00 0.00 84 1024.0
20190916015515 56 0.0 0.0 0.00 0.00 0.00 84 1023.9
20190916014518 56 0.0 0.0 0.00 0.00 0.00 84 1023.9
20190916013520 56 0.0 0.0 0.00 0.00 0.00 84 1023.9
20190916012522 57 0.0 0.0 0.00 0.00 0.00 84 1023.8
20190916011525 57 0.0 0.0 0.00 0.00 0.00 83 1023.8
20190916010516 56 0.0 0.0 0.00 0.00 0.00 83 1023.9
20190916005518 57 0.0 0.0 0.00 0.00 0.00 83 1024.0
20190916004521 57 0.0 0.0 0.00 0.00 0.00 83 1024.1
20190916003523 57 0.0 0.0 0.00 0.00 0.00 82 1024.1
20190916002525 57 0.0 0.0 0.00 0.00 0.00 81 1024.0
20190916001517 57 0.0 0.0 0.00 0.00 0.00 81 1024.0
20190916000519 57 0.0 0.0 0.00 0.00 0.00 82 1024.0
20190915235520 58 0.0 0.0 0.00 0.00 0.00 83 1024.1
20190915234523 57 0.0 0.0 0.00 0.00 0.00 83 1024.2
20190915233515 58 0.0 0.0 0.00 0.00 0.00 82 1024.2
20190915232516 58 0.0 0.0 0.00 0.00 0.00 81 1024.6
20190915231519 59 0.0 0.0 0.00 0.00 0.00 80 1024.7
20190915230521 59 0.0 0.0 0.00 0.00 0.00 80 1024.6
20190915225524 59 0.0 0.0 0.00 0.00 0.00 80 1024.5
20190915224516 60 0.0 0.0 0.00 0.00 0.00 80 1024.9
20190915223518 60 0.0 0.0 0.00 0.00 0.00 80 1024.9
20190915222521 60 0.0 0.0 0.00 0.00 0.00 80 1024.7